Time;durP1;ratioP1;P1;durP2;ratioP2;P2;SDS_P1;SDS_P2;PMS_P1;PMS_P2;Temp;Humidity;BMP_temperature;BMP_pressure;BME280_temperature;BME280_humidity;BME280_pressure;Samples;Min_cycle;Max_cycle;Signal;HPM_P1;HPM_P2
2021/12/24 00:01:40;;;;;;;8.77;5.97;;;-11.60;80.00;-12.70;97727.00;;;;4955588;28;88620;-58
2021/12/24 00:04:09;;;;;;;8.82;6.53;;;-11.50;80.00;-12.60;97740.00;;;;4955435;28;89920;-56
2021/12/24 00:06:36;;;;;;;9.18;6.57;;;-11.50;80.20;-12.60;97737.00;;;;4948642;28;87424;-58
2021/12/24 00:09:06;;;;;;;8.63;6.60;;;-11.50;80.00;-12.60;97738.00;;;;4950573;28;86240;-57
2021/12/24 00:11:37;;;;;;;8.95;6.13;;;-11.50;80.00;-12.60;97751.00;;;;4941982;28;88627;-59
2021/12/24 00:14:06;;;;;;;7.47;5.53;;;-11.50;80.10;-12.60;97734.00;;;;4927631;28;87660;-59
2021/12/24 00:16:41;;;;;;;9.00;6.25;;;-11.50;80.20;-12.70;97737.00;;;;4949989;28;88004;-58
2021/12/24 00:35:14;;;;;;;8.05;6.40;;;-11.60;80.10;-12.70;97728.00;;;;4950835;28;90411;-59
2021/12/24 00:37:44;;;;;;;8.32;6.03;;;-11.60;80.10;-12.70;97721.00;;;;4935063;28;87656;-58
2021/12/24 00:42:43;;;;;;;6.80;5.90;;;-11.50;80.00;-12.60;97712.00;;;;4927778;28;88407;-56
2021/12/24 00:45:11;;;;;;;7.97;6.15;;;-11.40;80.00;-12.50;97715.00;;;;4945391;28;88105;-58
2021/12/24 00:47:38;;;;;;;7.85;6.28;;;-11.50;79.40;-12.50;97706.00;;;;4941274;28;87558;-59
2021/12/24 00:50:09;;;;;;;8.27;6.43;;;-11.40;79.50;-12.50;97700.00;;;;4943620;28;87109;-59
2021/12/24 00:55:16;;;;;;;7.90;6.30;;;-11.40;79.30;-12.50;97685.00;;;;4952768;28;88745;-59
2021/12/24 00:57:48;;;;;;;7.75;6.40;;;-11.40;79.00;-12.50;97685.00;;;;4941947;28;87920;-59
2021/12/24 01:00:28;;;;;;;8.65;6.07;;;-11.40;79.00;-12.50;97686.00;;;;4947866;28;86654;-58
2021/12/24 01:02:57;;;;;;;7.78;6.18;;;-11.40;79.20;-12.50;97685.00;;;;4953064;28;87855;-59
2021/12/24 01:05:27;;;;;;;8.65;6.50;;;-11.40;79.30;-12.50;97688.00;;;;4945325;28;88394;-59
2021/12/24 01:07:53;;;;;;;8.38;6.63;;;-11.40;79.20;-12.60;97678.00;;;;4915313;28;88768;-58
2021/12/24 01:10:32;;;;;;;8.68;6.20;;;-11.50;79.20;-12.60;97681.00;;;;4943299;28;88042;-57
2021/12/24 01:12:59;;;;;;;7.97;6.07;;;-11.50;79.30;-12.70;97674.00;;;;4941456;28;87865;-59
2021/12/24 01:15:28;;;;;;;8.82;6.45;;;-11.50;79.50;-12.70;97675.00;;;;4931119;28;87434;-58
2021/12/24 01:25:54;;;;;;;9.32;6.53;;;-11.80;80.20;-13.00;97656.00;;;;4945309;28;87207;-59
2021/12/24 01:44:35;;;;;;;8.82;6.43;;;-11.70;80.20;-12.90;97662.00;;;;4948592;28;87831;-57
2021/12/24 01:47:09;;;;;;;8.48;6.55;;;-11.70;80.30;-12.80;97660.00;;;;4925715;28;88215;-59
2021/12/24 01:49:36;;;;;;;8.10;6.27;;;-11.70;80.10;-12.70;97654.00;;;;4930492;28;88002;-60
2021/12/24 01:52:07;;;;;;;8.02;5.95;;;-11.50;80.10;-12.60;97651.00;;;;4937044;28;86757;-58
2021/12/24 01:54:36;;;;;;;7.38;6.10;;;-11.50;79.60;-12.50;97658.00;;;;4954022;28;88649;-59
2021/12/24 01:57:03;;;;;;;7.70;6.35;;;-11.40;79.20;-12.50;97655.00;;;;4949411;28;87343;-56
2021/12/24 01:59:30;;;;;;;8.85;6.30;;;-11.40;79.00;-12.50;97650.00;;;;4918518;28;88973;-58
2021/12/24 02:01:56;;;;;;;8.32;6.72;;;-11.40;78.90;-12.50;97653.00;;;;4953558;28;87094;-59
2021/12/24 02:04:22;;;;;;;7.70;6.03;;;-11.40;78.90;-12.50;97644.00;;;;4954987;28;88633;-59
2021/12/24 02:06:49;;;;;;;8.75;6.45;;;-11.40;78.90;-12.50;97649.00;;;;4942670;28;87437;-59
2021/12/24 02:09:16;;;;;;;8.38;6.03;;;-11.40;79.00;-12.50;97643.00;;;;4948896;28;87384;-60
2021/12/24 02:11:44;;;;;;;7.43;5.70;;;-11.40;78.90;-12.50;97650.00;;;;4928360;28;87142;-55
2021/12/24 02:14:20;;;;;;;7.38;6.15;;;-11.40;78.90;-12.50;97634.00;;;;4930979;28;88623;-58
2021/12/24 02:17:46;;;;;;;8.00;6.25;;;-11.40;79.00;-12.60;97634.00;;;;4934994;28;87102;-58
2021/12/24 02:30:43;;;;;;;7.10;6.10;;;-11.50;79.20;-12.60;97604.00;;;;4944914;28;87544;-59
2021/12/24 02:33:12;;;;;;;8.48;6.25;;;-11.50;79.00;-12.60;97620.00;;;;4950908;28;87233;-59
2021/12/24 02:35:38;;;;;;;6.82;6.05;;;-11.50;79.00;-12.60;97614.00;;;;4929305;28;88726;-59
2021/12/24 02:38:05;;;;;;;9.00;6.22;;;-11.50;78.90;-12.50;97619.00;;;;4946357;28;87468;-58
2021/12/24 02:40:31;;;;;;;8.77;6.88;;;-11.50;79.50;-12.50;97602.00;;;;4953006;28;87337;-59
2021/12/24 02:42:59;;;;;;;11.30;7.40;;;-11.40;79.00;-12.50;97607.00;;;;4949121;28;86869;-57
2021/12/24 02:45:29;;;;;;;8.48;6.93;;;-11.40;78.80;-12.50;97610.00;;;;4949676;28;87524;-58
2021/12/24 02:48:12;;;;;;;10.60;6.35;;;-11.40;78.80;-12.50;97600.00;;;;4942297;28;88029;-59
2021/12/24 02:56:13;;;;;;;8.27;6.53;;;-11.50;78.50;-12.50;97596.00;;;;4946949;28;88334;-58
2021/12/24 02:58:47;;;;;;;21.90;8.43;;;-11.50;78.60;-12.50;97580.00;;;;4928170;28;87216;-59
2021/12/24 03:01:19;;;;;;;9.82;6.80;;;-11.40;78.50;-12.50;97579.00;;;;4945693;28;88147;-58
2021/12/24 03:03:48;;;;;;;9.40;7.38;;;-11.40;78.60;-12.50;97575.00;;;;4939089;28;89141;-57
2021/12/24 03:06:24;;;;;;;9.77;7.50;;;-11.40;78.50;-12.50;97575.00;;;;4925806;28;88568;-61
2021/12/24 03:08:51;;;;;;;8.82;6.95;;;-11.40;78.60;-12.50;97578.00;;;;4947027;28;87259;-57
2021/12/24 03:11:17;;;;;;;11.25;7.80;;;-11.40;78.60;-12.50;97567.00;;;;4947364;28;87645;-59
2021/12/24 03:13:44;;;;;;;10.25;7.38;;;-11.40;78.40;-12.50;97571.00;;;;4946278;28;88621;-58
2021/12/24 03:16:11;;;;;;;10.07;7.50;;;-11.40;78.40;-12.50;97579.00;;;;4944091;28;88639;-57
2021/12/24 03:18:40;;;;;;;9.43;7.80;;;-11.40;78.50;-12.50;97581.00;;;;4947087;28;88324;-61
2021/12/24 03:23:46;;;;;;;11.80;6.82;;;-11.40;78.30;-12.50;97568.00;;;;4943408;28;87138;-59
2021/12/24 03:26:15;;;;;;;10.43;7.57;;;-11.40;78.20;-12.50;97572.00;;;;4946248;28;88144;-58
2021/12/24 03:28:43;;;;;;;10.23;8.18;;;-11.40;78.20;-12.50;97566.00;;;;4945947;28;88429;-60
2021/12/24 03:31:12;;;;;;;10.23;7.90;;;-11.40;78.10;-12.50;97555.00;;;;4942747;28;87446;-61
2021/12/24 03:33:38;;;;;;;10.80;7.30;;;-11.30;78.20;-12.40;97549.00;;;;4943532;28;89148;-55
2021/12/24 03:36:08;;;;;;;10.25;7.60;;;-11.30;78.20;-12.40;97554.00;;;;4934983;28;87818;-59
2021/12/24 03:38:37;;;;;;;;;;;-11.30;78.10;-12.40;97565.00;;;;4951263;28;87759;-59
2021/12/24 03:41:04;;;;;;;10.88;8.82;;;-11.30;78.10;-12.40;97557.00;;;;4955647;28;88651;-57
2021/12/24 03:43:32;;;;;;;9.75;7.90;;;-11.40;77.90;-12.50;97556.00;;;;4933201;28;87515;-59
2021/12/24 03:46:03;;;;;;;10.18;8.68;;;-11.40;78.00;-12.50;97559.00;;;;4925647;28;88778;-59
2021/12/24 03:51:27;;;;;;;12.10;8.55;;;-11.50;78.20;-12.60;97567.00;;;;4949064;28;87116;-58
2021/12/24 03:56:41;;;;;;;11.57;9.43;;;-11.60;78.60;-12.80;97558.00;;;;4947394;28;87656;-57
2021/12/24 03:59:15;;;;;;;11.45;9.00;;;-11.70;78.60;-12.80;97552.00;;;;4929254;28;87282;-59
2021/12/24 04:01:47;;;;;;;11.45;9.32;;;-11.70;78.80;-12.90;97539.00;;;;4954472;28;88566;-57
2021/12/24 04:04:46;;;;;;;13.20;8.90;;;-11.70;79.10;-12.90;97564.00;;;;4945080;28;87194;-59
2021/12/24 04:07:39;;;;;;;11.52;9.40;;;-11.70;79.40;-12.90;97556.00;;;;4910596;28;89197;-59
2021/12/24 04:13:22;;;;;;;10.93;8.45;;;-11.70;79.50;-12.80;97547.00;;;;4952905;28;88181;-55
2021/12/24 04:15:49;;;;;;;11.43;8.73;;;-11.80;79.40;-12.90;97541.00;;;;4934520;28;87060;-58
2021/12/24 04:18:21;;;;;;;12.18;9.65;;;-11.70;79.50;-12.90;97547.00;;;;4932570;28;87094;-58
2021/12/24 04:26:19;;;;;;;11.05;8.32;;;-11.70;79.70;-12.80;97529.00;;;;4935648;28;86590;-58
2021/12/24 04:28:45;;;;;;;11.90;9.38;;;-11.70;79.70;-12.80;97525.00;;;;4930322;28;88553;-60
2021/12/24 04:31:12;;;;;;;11.38;8.30;;;-11.70;80.60;-12.80;97522.00;;;;4926972;28;87257;-58
2021/12/24 04:33:45;;;;;;;12.50;9.30;;;-11.70;79.80;-12.80;97522.00;;;;4927473;28;88077;-56
2021/12/24 04:39:37;;;;;;;11.65;9.30;;;-11.60;79.90;-12.70;97510.00;;;;4941841;28;88120;-59
2021/12/24 05:01:10;;;;;;;10.63;9.10;;;-11.40;79.50;-12.50;97504.00;;;;4942039;28;87873;-59
2021/12/24 05:04:04;;;;;;;11.95;9.60;;;-11.30;79.20;-12.40;97489.00;;;;4874326;28;88410;-60
2021/12/24 05:06:39;;;;;;;11.57;9.00;;;-11.30;79.40;-12.40;97488.00;;;;4919636;28;87463;-59
2021/12/24 05:09:11;;;;;;;12.57;8.93;;;-11.30;79.50;-12.30;97480.00;;;;4932630;28;87096;-60
2021/12/24 05:11:38;;;;;;;11.07;8.73;;;-11.30;79.50;-12.30;97479.00;;;;4931526;28;87580;-62
2021/12/24 05:14:05;;;;;;;13.60;9.68;;;-11.30;79.50;-12.30;97497.00;;;;4937107;28;88373;-59
2021/12/24 05:17:05;;;;;;;9.53;8.20;;;-11.30;79.80;-12.30;97483.00;;;;4936827;28;87047;-60
2021/12/24 05:22:33;;;;;;;11.18;8.95;;;-11.20;80.00;-12.20;97484.00;;;;4943184;28;87512;-57
2021/12/24 05:25:06;;;;;;;10.60;8.30;;;-11.10;80.10;-12.20;97477.00;;;;4947677;28;88336;-56
2021/12/24 05:27:36;;;;;;;11.40;8.77;;;-11.10;79.70;-12.20;97457.00;;;;4944957;28;88344;-61
2021/12/24 05:30:04;;;;;;;10.32;8.80;;;-11.10;79.70;-12.10;97464.00;;;;4947211;28;87373;-59
2021/12/24 05:32:31;;;;;;;11.27;7.85;;;-11.10;79.80;-12.10;97464.00;;;;4942870;28;87893;-62
2021/12/24 05:34:57;;;;;;;9.25;7.35;;;-11.00;79.80;-12.10;97467.00;;;;4939752;28;87761;-59
2021/12/24 05:37:23;;;;;;;9.52;7.85;;;-11.00;79.70;-12.00;97472.00;;;;4951302;28;87488;-62
2021/12/24 05:39:50;;;;;;;9.55;7.40;;;-10.90;79.70;-11.90;97470.00;;;;4931218;28;87107;-57
2021/12/24 05:42:25;;;;;;;10.05;7.22;;;-10.90;79.50;-11.80;97470.00;;;;4935165;28;87674;-60
2021/12/24 05:44:52;;;;;;;9.68;7.32;;;-10.80;79.30;-11.80;97469.00;;;;4928856;28;89079;-60
2021/12/24 05:47:38;;;;;;;8.60;7.22;;;-10.70;79.20;-11.70;97474.00;;;;4941625;28;87226;-60
2021/12/24 05:50:07;;;;;;;8.50;6.53;;;-10.70;78.70;-11.60;97484.00;;;;4923864;28;87394;-59
2021/12/24 05:52:42;;;;;;;10.75;6.63;;;-10.60;78.50;-11.60;97479.00;;;;4953865;28;88492;-59
2021/12/24 05:55:18;;;;;;;9.63;6.75;;;-10.60;78.30;-11.60;97476.00;;;;4949996;28;88230;-58
2021/12/24 05:57:46;;;;;;;9.63;7.38;;;-10.50;77.80;-11.50;97481.00;;;;4928686;28;87167;-59
2021/12/24 06:00:13;;;;;;;7.80;6.28;;;-10.50;77.70;-11.50;97477.00;;;;4928832;28;88300;-59
2021/12/24 06:02:41;;;;;;;8.20;7.15;;;-10.50;77.70;-11.50;97475.00;;;;4950205;28;87391;-59
2021/12/24 06:05:08;;;;;;;8.88;6.57;;;-10.40;77.80;-11.40;97472.00;;;;4948127;28;87483;-60
2021/12/24 06:07:34;;;;;;;8.45;6.72;;;-10.40;77.80;-11.40;97463.00;;;;4947077;28;87483;-57
2021/12/24 06:10:00;;;;;;;7.88;6.72;;;-10.40;77.80;-11.40;97472.00;;;;4948228;28;87144;-59
2021/12/24 06:12:26;;;;;;;8.07;6.30;;;-10.30;77.30;-11.40;97470.00;;;;4953587;28;87565;-58
2021/12/24 06:15:02;;;;;;;8.65;7.15;;;-10.30;77.20;-11.30;97487.00;;;;4946497;28;87295;-59
2021/12/24 06:17:29;;;;;;;9.23;6.68;;;-10.30;77.10;-11.30;97471.00;;;;4946703;28;88350;-58
2021/12/24 06:19:55;;;;;;;7.70;6.40;;;-10.30;77.00;-11.30;97475.00;;;;4942873;28;87329;-59
2021/12/24 06:22:22;;;;;;;8.10;6.65;;;-10.30;77.00;-11.30;97487.00;;;;4944948;28;88855;-58
2021/12/24 06:24:48;;;;;;;8.00;6.20;;;-10.30;77.10;-11.20;97481.00;;;;4940380;28;87650;-59
2021/12/24 06:27:14;;;;;;;8.15;6.50;;;-10.20;76.90;-11.20;97475.00;;;;4939923;28;87510;-59
2021/12/24 06:29:40;;;;;;;8.20;6.53;;;-10.20;76.70;-11.20;97477.00;;;;4940472;28;87531;-59
2021/12/24 06:32:07;;;;;;;9.45;6.35;;;-10.20;76.30;-11.20;97492.00;;;;4939855;28;88723;-56
2021/12/24 06:34:33;;;;;;;7.97;5.85;;;-10.10;75.90;-11.10;97486.00;;;;4934977;28;87694;-59
2021/12/24 06:37:00;;;;;;;8.43;6.25;;;-10.10;75.90;-11.10;97486.00;;;;4949579;28;86995;-58
2021/12/24 06:39:27;;;;;;;7.18;6.00;;;-10.10;76.00;-11.10;97496.00;;;;4947784;28;87220;-59
2021/12/24 06:41:54;;;;;;;8.43;6.22;;;-10.10;76.00;-11.10;97490.00;;;;4955150;28;88598;-58
2021/12/24 06:44:21;;;;;;;9.15;6.63;;;-10.10;76.00;-11.10;97483.00;;;;4944859;28;88481;-59
2021/12/24 06:46:48;;;;;;;8.07;6.25;;;-10.10;76.40;-11.10;97489.00;;;;4940658;28;87617;-59
2021/12/24 06:49:14;;;;;;;7.47;6.03;;;-10.10;76.70;-11.10;97490.00;;;;4938143;28;87330;-59
2021/12/24 06:51:40;;;;;;;8.18;6.30;;;-10.10;76.60;-11.10;97479.00;;;;4945935;28;88281;-58
2021/12/24 06:54:07;;;;;;;8.27;6.35;;;-10.10;76.70;-11.10;97485.00;;;;4953653;28;87270;-59
2021/12/24 06:56:34;;;;;;;8.40;5.68;;;-10.10;76.90;-11.00;97483.00;;;;4945641;28;88007;-60
2021/12/24 06:59:00;;;;;;;7.55;5.72;;;-10.00;76.80;-11.00;97496.00;;;;4925510;28;86696;-60
2021/12/24 07:01:26;;;;;;;8.57;6.43;;;-10.00;76.50;-11.00;97482.00;;;;4915808;28;87331;-60
2021/12/24 07:03:56;;;;;;;8.55;6.57;;;-10.00;76.20;-10.90;97495.00;;;;4927803;28;87868;-59
2021/12/24 07:06:22;;;;;;;7.70;5.85;;;-10.00;75.90;-10.90;97489.00;;;;4942113;28;89581;-59
2021/12/24 07:08:49;;;;;;;8.55;6.05;;;-9.90;75.70;-10.90;97482.00;;;;4940129;28;87516;-58
2021/12/24 07:11:15;;;;;;;8.20;6.03;;;-9.90;75.60;-10.90;97487.00;;;;4951790;28;89066;-61
2021/12/24 07:13:41;;;;;;;7.78;6.20;;;-9.90;75.40;-10.90;97483.00;;;;4955671;28;87636;-59
2021/12/24 07:16:07;;;;;;;9.20;6.10;;;-9.80;75.60;-10.80;97493.00;;;;4935728;28;87325;-59
2021/12/24 07:18:36;;;;;;;8.63;6.80;;;-9.80;75.50;-10.80;97486.00;;;;4956892;28;87179;-60
2021/12/24 07:21:03;;;;;;;8.13;6.00;;;-9.80;75.30;-10.80;97481.00;;;;4947561;28;88330;-59
2021/12/24 07:23:29;;;;;;;8.32;6.00;;;-9.80;75.40;-10.80;97471.00;;;;4945154;28;87280;-57
2021/12/24 07:25:55;;;;;;;9.43;6.22;;;-9.80;75.20;-10.80;97476.00;;;;4951866;28;87258;-56
2021/12/24 07:28:21;;;;;;;7.13;5.78;;;-9.80;75.70;-10.70;97471.00;;;;4946587;28;87518;-55
2021/12/24 07:30:48;;;;;;;7.95;6.22;;;-9.80;75.60;-10.70;97483.00;;;;4947409;28;90058;-60
2021/12/24 07:33:14;;;;;;;8.07;5.78;;;-9.80;75.40;-10.80;97486.00;;;;4943557;28;88274;-59
2021/12/24 07:35:43;;;;;;;8.07;6.03;;;-9.80;75.30;-10.70;97483.00;;;;4952900;28;87105;-59
2021/12/24 07:38:13;;;;;;;8.48;6.25;;;-9.80;75.20;-10.70;97480.00;;;;4951275;28;87492;-59
2021/12/24 07:40:42;;;;;;;8.95;6.35;;;-9.80;75.00;-10.70;97483.00;;;;4955121;28;89149;-59
2021/12/24 07:43:09;;;;;;;8.40;5.97;;;-9.80;74.90;-10.70;97473.00;;;;4950599;28;87532;-58
2021/12/24 07:45:37;;;;;;;7.82;6.47;;;-9.80;74.90;-10.70;97478.00;;;;4951056;28;87386;-59
2021/12/24 07:48:12;;;;;;;7.40;5.60;;;-9.70;74.90;-10.70;97483.00;;;;4942589;28;87067;-59
2021/12/24 07:53:15;;;;;;;7.97;5.72;;;-9.60;75.00;-10.50;97475.00;;;;4950484;28;87394;-59
2021/12/24 07:55:42;;;;;;;7.38;6.15;;;-9.50;74.40;-10.50;97469.00;;;;4941035;28;87983;-58
2021/12/24 07:58:10;;;;;;;7.85;6.20;;;-9.50;74.20;-10.50;97454.00;;;;4943949;28;87186;-58
2021/12/24 08:00:39;;;;;;;8.05;6.38;;;-9.50;74.10;-10.50;97473.00;;;;4944908;28;88709;-59
2021/12/24 08:03:05;;;;;;;9.40;6.22;;;-9.50;73.60;-10.40;97473.00;;;;4955196;28;87541;-58
2021/12/24 08:05:39;;;;;;;8.25;6.40;;;-9.50;73.40;-10.40;97477.00;;;;4947553;28;87557;-59
2021/12/24 08:08:07;;;;;;;8.23;6.57;;;-9.40;73.50;-10.40;97468.00;;;;4946359;28;87417;-55
2021/12/24 08:10:34;;;;;;;8.48;6.22;;;-9.40;73.50;-10.30;97468.00;;;;4946911;28;87738;-59
2021/12/24 08:13:02;;;;;;;9.43;7.50;;;-9.40;73.40;-10.30;97467.00;;;;4952570;28;89234;-59
2021/12/24 08:15:29;;;;;;;10.02;5.90;;;-9.40;73.40;-10.30;97461.00;;;;4948076;28;87193;-55
2021/12/24 08:17:55;;;;;;;8.50;6.57;;;-9.40;73.50;-10.30;97460.00;;;;4957799;28;87119;-55
2021/12/24 08:20:24;;;;;;;10.80;7.10;;;-9.40;73.50;-10.20;97455.00;;;;4948290;28;88484;-59
2021/12/24 08:22:52;;;;;;;8.77;6.20;;;-9.30;73.50;-10.20;97461.00;;;;4946144;28;88352;-60
2021/12/24 08:25:19;;;;;;;9.80;6.60;;;-9.20;73.20;-10.10;97455.00;;;;4945411;28;87219;-58
2021/12/24 08:27:46;;;;;;;8.05;6.38;;;-9.20;73.50;-10.10;97457.00;;;;4943862;28;87028;-59
2021/12/24 08:30:13;;;;;;;9.63;6.55;;;-9.20;73.40;-10.10;97457.00;;;;4947337;28;87955;-57
2021/12/24 08:32:41;;;;;;;9.38;6.32;;;-9.20;73.60;-10.10;97448.00;;;;4933098;28;87518;-58
2021/12/24 08:35:13;;;;;;;9.43;6.50;;;-9.20;73.50;-10.00;97438.00;;;;4930194;28;87573;-57
2021/12/24 08:37:40;;;;;;;8.05;6.43;;;-9.10;73.40;-10.00;97436.00;;;;4948875;28;88442;-58
2021/12/24 08:40:07;;;;;;;8.45;6.88;;;-9.10;73.40;-10.00;97434.00;;;;4949256;28;87642;-58
2021/12/24 08:42:34;;;;;;;7.63;6.20;;;-9.10;73.70;-10.00;97437.00;;;;4945615;28;88016;-57
2021/12/24 08:45:00;;;;;;;8.57;6.88;;;-9.10;73.50;-9.90;97424.00;;;;4946884;28;88224;-59
2021/12/24 08:47:26;;;;;;;7.78;6.05;;;-9.00;73.50;-9.80;97434.00;;;;4941949;28;87167;-58
2021/12/24 08:49:52;;;;;;;8.85;6.68;;;-8.90;73.20;-9.80;97424.00;;;;4940352;28;87678;-55
2021/12/24 08:52:18;;;;;;;8.48;6.82;;;-9.00;72.80;-9.90;97425.00;;;;4952386;28;87451;-59
2021/12/24 08:54:45;;;;;;;9.85;6.78;;;-9.00;72.90;-9.90;97419.00;;;;4951664;28;87144;-61
2021/12/24 08:57:11;;;;;;;9.30;7.10;;;-9.00;73.70;-9.90;97421.00;;;;4949207;28;87153;-58
2021/12/24 08:59:37;;;;;;;11.43;6.35;;;-9.00;73.10;-9.80;97417.00;;;;4945048;28;88728;-58
2021/12/24 09:02:04;;;;;;;9.90;7.28;;;-9.00;73.40;-9.80;97418.00;;;;4954877;28;87157;-58
2021/12/24 09:04:31;;;;;;;8.98;7.22;;;-9.00;73.10;-9.80;97414.00;;;;4953107;28;87440;-56
2021/12/24 09:06:57;;;;;;;8.88;6.95;;;-8.90;73.20;-9.80;97416.00;;;;4948595;28;87032;-60
2021/12/24 09:09:23;;;;;;;9.73;7.80;;;-9.00;73.20;-9.80;97409.00;;;;4927832;28;89872;-57
2021/12/24 09:11:50;;;;;;;9.40;7.00;;;-9.00;73.20;-9.80;97409.00;;;;4929046;28;87945;-59
2021/12/24 09:14:18;;;;;;;9.27;7.72;;;-8.90;73.20;-9.80;97411.00;;;;4952364;28;87812;-60
2021/12/24 09:16:47;;;;;;;10.60;8.32;;;-9.00;73.40;-9.90;97409.00;;;;4949753;28;87371;-58
2021/12/24 09:19:17;;;;;;;10.40;7.97;;;-9.00;73.90;-9.90;97394.00;;;;4954081;28;88103;-58
2021/12/24 09:21:44;;;;;;;9.82;7.70;;;-9.00;73.80;-9.90;97391.00;;;;4912788;28;88749;-59
2021/12/24 09:24:10;;;;;;;9.45;8.43;;;-9.00;73.90;-9.90;97399.00;;;;4946571;28;87090;-58
2021/12/24 09:26:38;;;;;;;9.48;6.78;;;-9.00;73.90;-9.80;97394.00;;;;4934976;28;86312;-59
2021/12/24 09:29:07;;;;;;;10.80;8.48;;;-8.90;74.00;-9.80;97382.00;;;;4947101;28;87995;-59
2021/12/24 09:31:35;;;;;;;10.70;8.43;;;-9.00;73.90;-9.90;97382.00;;;;4943613;28;88619;-56
2021/12/24 09:34:02;;;;;;;11.48;8.13;;;-9.00;74.00;-9.90;97391.00;;;;4942869;28;88708;-59
2021/12/24 09:36:29;;;;;;;10.35;7.90;;;-9.00;74.30;-9.80;97389.00;;;;4948182;28;87059;-58
2021/12/24 09:39:01;;;;;;;12.30;7.70;;;-9.00;74.20;-9.80;97377.00;;;;4946785;28;87531;-58
2021/12/24 09:41:27;;;;;;;10.15;8.48;;;-8.90;74.00;-9.80;97381.00;;;;4958149;28;88365;-57
2021/12/24 09:43:56;;;;;;;10.57;8.23;;;-8.90;74.00;-9.80;97384.00;;;;4946338;28;87070;-61
2021/12/24 09:46:22;;;;;;;9.90;7.88;;;-8.90;74.00;-9.80;97377.00;;;;4946648;28;87751;-59
2021/12/24 09:48:49;;;;;;;10.70;8.60;;;-8.90;74.00;-9.80;97385.00;;;;4940889;28;87741;-59
2021/12/24 09:51:15;;;;;;;10.68;8.75;;;-8.90;74.10;-9.80;97377.00;;;;4944561;28;88449;-56
2021/12/24 09:53:41;;;;;;;10.35;7.97;;;-8.90;74.00;-9.80;97379.00;;;;4956263;28;87915;-61
2021/12/24 09:56:07;;;;;;;11.23;8.48;;;-8.90;74.00;-9.70;97392.00;;;;4948934;28;87500;-60
2021/12/24 09:58:34;;;;;;;11.82;9.27;;;-8.80;74.10;-9.70;97382.00;;;;4941396;28;88543;-58
2021/12/24 10:01:01;;;;;;;10.00;8.70;;;-8.80;74.10;-9.70;97383.00;;;;4943132;28;88328;-60
2021/12/24 10:03:36;;;;;;;10.73;8.13;;;-8.80;74.10;-9.70;97370.00;;;;4938213;28;87522;-58
2021/12/24 10:06:04;;;;;;;10.50;8.88;;;-8.80;74.00;-9.70;97363.00;;;;4939891;28;86890;-60
2021/12/24 10:08:32;;;;;;;12.18;8.40;;;-8.70;74.20;-9.70;97370.00;;;;4941509;28;87554;-59
2021/12/24 10:11:11;;;;;;;11.75;9.23;;;-8.80;74.10;-9.70;97375.00;;;;4941069;28;87968;-59
2021/12/24 10:13:46;;;;;;;10.60;9.18;;;-8.80;74.10;-9.70;97366.00;;;;4943036;28;87809;-59
2021/12/24 10:16:19;;;;;;;10.10;8.32;;;-8.80;74.10;-9.70;97368.00;;;;4941496;28;86279;-60
2021/12/24 10:18:52;;;;;;;10.98;8.90;;;-8.80;74.10;-9.70;97365.00;;;;4943316;28;88658;-59
2021/12/24 10:21:29;;;;;;;11.30;9.02;;;-8.80;74.20;-9.70;97376.00;;;;4946971;28;87462;-60
2021/12/24 10:24:02;;;;;;;12.70;9.32;;;-8.80;74.10;-9.70;97365.00;;;;4945370;28;87998;-59
2021/12/24 10:26:39;;;;;;;10.68;8.95;;;-8.80;74.10;-9.70;97364.00;;;;4951059;28;87581;-61
2021/12/24 10:29:12;;;;;;;11.32;9.07;;;-8.80;74.10;-9.70;97356.00;;;;4945887;28;88082;-59
2021/12/24 10:31:44;;;;;;;13.30;9.50;;;-8.80;74.10;-9.70;97364.00;;;;4944007;28;88819;-61
2021/12/24 10:34:26;;;;;;;11.70;9.05;;;-8.80;74.10;-9.80;97349.00;;;;4946087;28;88420;-59
2021/12/24 10:37:25;;;;;;;11.25;9.40;;;-8.90;74.00;-9.80;97349.00;;;;4948937;28;88374;-60
2021/12/24 10:39:55;;;;;;;13.13;9.57;;;-8.90;74.00;-9.80;97344.00;;;;4946114;28;88607;-60
2021/12/24 10:42:43;;;;;;;11.32;9.63;;;-9.00;74.50;-9.80;97345.00;;;;4950804;28;87355;-58
2021/12/24 10:45:20;;;;;;;12.32;9.68;;;-9.00;74.30;-9.90;97346.00;;;;4949387;28;87458;-57
2021/12/24 10:47:47;;;;;;;13.32;10.07;;;-9.00;74.20;-9.90;97336.00;;;;4938660;28;88917;-59
2021/12/24 10:55:27;;;;;;;12.32;9.60;;;-9.10;74.50;-10.00;97355.00;;;;4950567;28;87039;-56
2021/12/24 10:57:59;;;;;;;11.85;9.27;;;-9.10;74.80;-10.00;97338.00;;;;4942374;28;86995;-57
2021/12/24 11:00:35;;;;;;;10.82;9.65;;;-9.10;74.80;-10.00;97353.00;;;;4935928;28;88713;-57
2021/12/24 11:03:06;;;;;;;12.20;9.52;;;-9.10;74.80;-10.00;97337.00;;;;4953170;28;87350;-58
2021/12/24 11:05:44;;;;;;;11.50;9.73;;;-9.10;75.10;-10.10;97335.00;;;;4941662;28;87683;-59
2021/12/24 11:08:23;;;;;;;11.13;9.95;;;-9.20;74.70;-10.10;97335.00;;;;4940971;28;86849;-60
2021/12/24 11:10:57;;;;;;;13.00;9.95;;;-9.20;74.90;-10.00;97330.00;;;;4943841;28;88650;-58
2021/12/24 11:13:50;;;;;;;13.23;9.40;;;-9.10;75.10;-10.10;97324.00;;;;4945024;28;87275;-59
2021/12/24 11:16:22;;;;;;;10.73;9.02;;;-9.20;75.30;-10.10;97320.00;;;;4943037;28;88956;-59
2021/12/24 11:19:02;;;;;;;;;;;-9.20;75.40;-10.10;97323.00;;;;4943990;28;88125;-59
2021/12/24 11:21:31;;;;;;;12.40;9.88;;;-9.20;75.30;-10.10;97312.00;;;;4939472;28;87511;-59
2021/12/24 11:23:57;;;;;;;13.50;10.70;;;-9.20;75.00;-10.10;97326.00;;;;4941317;28;88361;-58
2021/12/24 11:26:34;;;;;;;10.77;9.50;;;-9.20;75.40;-10.10;97320.00;;;;4949467;28;87144;-59
2021/12/24 11:29:00;;;;;;;11.50;9.88;;;-9.20;75.40;-10.10;97324.00;;;;4945142;28;87298;-60
2021/12/24 11:31:31;;;;;;;12.82;10.30;;;-9.20;75.50;-10.10;97316.00;;;;4944968;28;87985;-59
2021/12/24 11:33:58;;;;;;;13.38;10.38;;;-9.20;75.30;-10.10;97330.00;;;;4932275;28;88378;-58
2021/12/24 11:36:28;;;;;;;12.20;10.57;;;-9.20;75.30;-10.10;97318.00;;;;4942020;28;87105;-61
2021/12/24 11:39:00;;;;;;;14.13;10.32;;;-9.20;75.50;-10.10;97302.00;;;;4944247;28;87316;-60
2021/12/24 11:41:31;;;;;;;11.55;10.23;;;-9.20;75.50;-10.10;97317.00;;;;4942968;28;88573;-58
2021/12/24 11:44:01;;;;;;;11.00;9.85;;;-9.10;75.60;-10.10;97308.00;;;;4941619;28;89815;-58
2021/12/24 11:46:28;;;;;;;12.85;10.93;;;-9.20;75.50;-10.10;97318.00;;;;4944311;28;87725;-60
2021/12/24 11:48:55;;;;;;;12.95;10.40;;;-9.20;75.50;-10.10;97315.00;;;;4938137;28;87069;-59
2021/12/24 11:51:30;;;;;;;13.30;10.27;;;-9.20;75.50;-10.10;97312.00;;;;4941395;28;88685;-62
2021/12/24 11:54:04;;;;;;;13.35;11.07;;;-9.20;75.50;-10.10;97326.00;;;;4934392;28;88460;-59
2021/12/24 11:56:41;;;;;;;14.57;10.73;;;-9.20;75.60;-10.10;97319.00;;;;4934700;28;88069;-57
2021/12/24 11:59:07;;;;;;;13.57;11.00;;;-9.10;75.60;-10.10;97330.00;;;;4941017;28;86643;-60
2021/12/24 12:01:41;;;;;;;13.27;11.25;;;-9.10;75.70;-10.10;97331.00;;;;4949754;28;87796;-57
2021/12/24 12:04:19;;;;;;;13.35;11.57;;;-9.10;75.60;-10.10;97328.00;;;;4949426;28;88573;-61
2021/12/24 12:06:46;;;;;;;13.05;11.13;;;-9.10;75.80;-10.10;97337.00;;;;4943011;28;88027;-58
2021/12/24 12:09:13;;;;;;;11.93;10.63;;;-9.10;75.90;-10.10;97336.00;;;;4948863;28;86995;-60
2021/12/24 12:11:43;;;;;;;12.82;10.57;;;-9.20;75.70;-10.10;97332.00;;;;4932099;28;88663;-61
2021/12/24 12:14:15;;;;;;;12.35;11.05;;;-9.20;75.50;-10.10;97331.00;;;;4945559;28;88436;-61
2021/12/24 12:16:41;;;;;;;12.75;10.95;;;-9.20;76.10;-10.10;97315.00;;;;4951951;28;87091;-60
2021/12/24 12:19:23;;;;;;;13.55;11.65;;;-9.20;76.10;-10.10;97320.00;;;;4952576;28;87303;-60
2021/12/24 12:22:18;;;;;;;12.93;11.52;;;-9.20;76.20;-10.10;97309.00;;;;4949625;28;87123;-60
2021/12/24 12:25:28;;;;;;;14.07;11.10;;;-9.20;76.30;-10.20;97320.00;;;;4946240;28;87497;-59
2021/12/24 12:27:58;;;;;;;14.13;11.93;;;-9.20;76.20;-10.20;97317.00;;;;4944853;28;87116;-59
2021/12/24 12:30:42;;;;;;;14.07;11.82;;;-9.20;76.30;-10.20;97311.00;;;;4948974;28;87389;-58
2021/12/24 12:33:17;;;;;;;13.43;11.90;;;-9.20;76.30;-10.20;97309.00;;;;4939257;28;89375;-61
2021/12/24 12:35:57;;;;;;;13.07;11.13;;;-9.20;76.80;-10.20;97317.00;;;;4947685;28;88039;-60
2021/12/24 12:38:44;;;;;;;14.43;12.30;;;-9.30;76.60;-10.20;97308.00;;;;4951004;28;87550;-60
2021/12/24 12:41:34;;;;;;;13.65;11.32;;;-9.20;76.70;-10.20;97310.00;;;;4929375;28;88585;-60
2021/12/24 12:44:15;;;;;;;15.02;12.23;;;-9.20;76.70;-10.30;97329.00;;;;4948223;28;88694;-61
2021/12/24 12:46:43;;;;;;;14.18;12.52;;;-9.30;76.70;-10.30;97320.00;;;;4940803;28;87269;-61